Flight Track Log - Related Links

Times and Time Zones

All times are in EST time to prevent confusion due to time zone crossing. See the CSN6871 flight status page for this flight to view local times or setup timezone preferences in your user account.

Time Position Orientation Groundspeed Altitude Reporting Facility
EST Latitude Longitude Course Direction KTS MPH feet Rate Location/Type
Mon 08:31:00 PM 43.8231 87.2888 238° Southwest  Level Estimated
Mon 08:32:00 PM 43.7388 87.1040 238° Southwest  Level Estimated
Mon 08:33:00 PM 43.6542 86.9196 238° Southwest  Level Estimated
Mon 08:34:00 PM 43.5693 86.7358 238° Southwest  Level Estimated
Mon 08:35:00 PM 43.4841 86.5524 237° Southwest  Level Estimated
Mon 08:36:00 PM 43.3986 86.3696 237° Southwest  Level Estimated
Mon 08:37:00 PM 43.3129 86.1873 237° Southwest  Level Estimated
Mon 08:38:00 PM 43.2268 86.0056 237° Southwest  Level Estimated
Mon 08:39:00 PM 43.1404 85.8243 237° Southwest  Level Estimated
Mon 08:40:00 PM 43.0538 85.6435 237° Southwest  Level Estimated
Mon 08:41:00 PM 42.9669 85.4633 237° Southwest  Level Estimated
Mon 08:42:00 PM 42.8797 85.2836 237° Southwest  Level Estimated
Mon 08:43:00 PM 42.7922 85.1044 236° Southwest  Level Estimated
Mon 08:44:00 PM 42.7044 84.9256 236° Southwest  Level Estimated
Mon 08:45:00 PM 42.6164 84.7474 236° Southwest  Level Estimated
Mon 08:46:00 PM 42.5281 84.5697 236° Southwest  Level Estimated
Mon 08:47:00 PM 42.4395 84.3925 236° Southwest  Level Estimated
Mon 08:48:00 PM 42.3506 84.2158 236° Southwest  Level Estimated
Mon 08:49:00 PM 42.2615 84.0396 236° Southwest  Level Estimated
Mon 08:50:00 PM 42.1721 83.8639 236° Southwest  Level Estimated
Mon 08:51:00 PM 42.0824 83.6887 235° Southwest  Level Estimated
Mon 08:52:00 PM 41.9925 83.5140 235° Southwest  Level Estimated
Mon 08:53:00 PM 41.9023 83.3398 235° Southwest  Level Estimated
Mon 08:54:00 PM 41.8119 83.1661 235° Southwest  Level Estimated
Mon 08:55:00 PM 41.7211 82.9928 235° Southwest  Level Estimated
Mon 08:56:00 PM 41.7181 82.9869 235° Southwest  Level Estimated
Mon 08:57:00 PM 41.7181 82.9869 143° Southeast  Level Estimated
Mon 08:58:00 PM 41.7181 82.9869 143° Southeast  Level Estimated
Mon 08:59:00 PM 41.7181 82.9869 143° Southeast  Level Estimated
Mon 09:00:00 PM 41.7181 82.9869 143° Southeast  Level Estimated
Mon 09:01:00 PM 41.7181 82.9869 143° Southeast  Level Estimated
Mon 09:02:00 PM 41.7181 82.9869 143° Southeast  Level Estimated
Mon 09:03:00 PM 41.7181 82.9869 143° Southeast  Level Estimated
Mon 09:04:00 PM 41.7181 82.9869 143° Southeast  Level Estimated
Mon 09:05:00 PM 41.7181 82.9869 143° Southeast  Level Estimated
Mon 09:06:00 PM 41.7181 82.9869 143° Southeast  Level Estimated
Mon 09:07:00 PM 41.7181 82.9869 143° Southeast  Level Estimated
Mon 09:08:00 PM 41.7181 82.9869 143° Southeast  Level Estimated

Login

Don't have an account? Register now (free) for customized features, flight alerts, and more!